Time;durP1;ratioP1;P1;durP2;ratioP2;P2;SDS_P1;SDS_P2;PMS_P1;PMS_P2;Temp;Humidity;BMP_temperature;BMP_pressure;BME280_temperature;BME280_humidity;BME280_pressure;Samples;Min_cycle;Max_cycle;Signal;HPM_P1;HPM_P2
2023/02/16 00:01:28;;;;;;;23.92;21.45;;;2.10;97.80;;;;;;4149453;28;20048;-84
2023/02/16 00:03:49;;;;;;;24.48;20.38;;;1.90;98.20;;;;;;4152217;28;20054;-84
2023/02/16 00:06:13;;;;;;;22.90;18.60;;;2.00;98.80;;;;;;4146576;28;20185;-84
2023/02/16 00:08:34;;;;;;;18.75;17.30;;;1.90;98.30;;;;;;4148399;28;20072;-84
2023/02/16 00:13:46;;;;;;;44.55;31.38;;;1.80;98.40;;;;;;4144905;28;20093;-83
2023/02/16 00:16:21;;;;;;;57.35;38.42;;;1.60;98.60;;;;;;4143340;28;20045;-84
2023/02/16 00:18:41;;;;;;;47.17;34.83;;;1.40;99.40;;;;;;4144422;28;20050;-84
2023/02/16 00:21:01;;;;;;;38.85;32.58;;;1.30;99.90;;;;;;4148528;28;20272;-84
2023/02/16 00:23:22;;;;;;;31.98;26.98;;;1.30;99.90;;;;;;4154314;28;20048;-83
2023/02/16 00:25:42;;;;;;;35.33;28.38;;;1.30;99.90;;;;;;4148591;28;20088;-83
2023/02/16 00:28:06;;;;;;;26.00;23.35;;;1.10;99.90;;;;;;4147476;28;20041;-83
2023/02/16 00:30:26;;;;;;;27.38;24.55;;;1.20;99.90;;;;;;4144841;28;20041;-83
2023/02/16 00:32:47;;;;;;;33.03;27.75;;;1.30;99.90;;;;;;4145382;28;20085;-83
2023/02/16 00:35:18;;;;;;;30.83;26.13;;;1.40;99.90;;;;;;4146910;28;20049;-83
2023/02/16 00:37:37;;;;;;;32.40;25.42;;;1.20;99.90;;;;;;4151036;28;20060;-83
2023/02/16 00:39:57;;;;;;;32.03;28.58;;;1.00;99.90;;;;;;4148677;28;20053;-83
2023/02/16 00:42:22;;;;;;;43.13;35.28;;;0.90;99.90;;;;;;4149785;28;20109;-83
2023/02/16 00:44:51;;;;;;;41.95;33.60;;;0.80;99.90;;;;;;4149085;28;20073;-83
2023/02/16 00:47:37;;;;;;;40.97;32.38;;;0.80;99.90;;;;;;4151599;28;20042;-84
2023/02/16 00:49:57;;;;;;;37.00;28.83;;;1.00;99.90;;;;;;4147965;28;20364;-83
2023/02/16 00:52:23;;;;;;;32.00;28.73;;;1.00;99.90;;;;;;4142758;28;20053;-84
2023/02/16 00:54:43;;;;;;;40.70;29.33;;;1.10;99.90;;;;;;4148732;28;20045;-84
2023/02/16 00:57:02;;;;;;;45.13;33.25;;;1.10;99.90;;;;;;4149399;28;20053;-84
2023/02/16 00:59:23;;;;;;;43.15;33.83;;;1.00;99.90;;;;;;4154096;28;20049;-84
2023/02/16 01:01:43;;;;;;;47.47;31.63;;;1.00;99.90;;;;;;4147207;28;20049;-83
2023/02/16 01:04:06;;;;;;;41.72;31.65;;;1.10;99.90;;;;;;4149146;28;20061;-83
2023/02/16 01:11:53;;;;;;;20.38;18.42;;;0.60;99.90;;;;;;4146055;28;20061;-83
2023/02/16 01:14:13;;;;;;;18.45;17.00;;;0.50;99.90;;;;;;4145394;28;20400;-83
2023/02/16 01:16:39;;;;;;;17.50;16.23;;;0.70;99.90;;;;;;4148689;28;20056;-83
2023/02/16 01:18:59;;;;;;;20.60;18.70;;;0.70;99.90;;;;;;4146466;28;20129;-83
2023/02/16 01:21:20;;;;;;;24.23;21.48;;;0.70;99.90;;;;;;4143436;28;20085;-83
2023/02/16 01:23:40;;;;;;;35.35;30.02;;;0.60;99.90;;;;;;4147205;28;20109;-83
2023/02/16 01:26:00;;;;;;;38.33;29.70;;;0.50;99.90;;;;;;4150569;28;20392;-83
2023/02/16 01:28:22;;;;;;;34.38;30.55;;;0.40;99.90;;;;;;4154367;28;20048;-83
2023/02/16 01:30:42;;;;;;;38.88;28.88;;;0.50;99.90;;;;;;4149379;28;20104;-83
2023/02/16 01:33:02;;;;;;;28.55;25.88;;;0.60;99.90;;;;;;4155328;28;20037;-83
2023/02/16 01:35:27;;;;;;;29.60;26.63;;;0.60;99.90;;;;;;4153351;28;20049;-83
2023/02/16 01:37:48;;;;;;;29.27;25.42;;;0.60;99.90;;;;;;4166883;28;20053;-83
2023/02/16 01:40:41;;;;;;;24.98;22.63;;;0.60;99.90;;;;;;4152229;28;20240;-83
2023/02/16 01:43:23;;;;;;;23.70;21.60;;;0.60;99.90;;;;;;4097590;29;20038;-83
2023/02/16 01:45:46;;;;;;;25.30;22.92;;;0.50;99.90;;;;;;4083985;29;20043;-83
2023/02/16 01:48:19;;;;;;;27.90;24.90;;;0.30;99.90;;;;;;4098911;29;20178;-83
2023/02/16 01:50:46;;;;;;;28.75;25.80;;;0.30;99.90;;;;;;4099579;29;20086;-83
2023/02/16 01:53:28;;;;;;;26.65;24.00;;;0.20;99.90;;;;;;4102321;29;20050;-83
2023/02/16 01:55:56;;;;;;;26.92;24.08;;;0.10;99.90;;;;;;4100553;29;20062;-83
2023/02/16 01:58:40;;;;;;;26.95;23.95;;;0.30;99.90;;;;;;4084279;29;20086;-83
2023/02/16 02:01:00;;;;;;;28.65;25.75;;;0.40;99.90;;;;;;4100189;29;20094;-83
2023/02/16 02:06:10;;;;;;;24.33;21.95;;;0.60;99.90;;;;;;4091809;29;20372;-83
2023/02/16 02:08:58;;;;;;;25.85;23.25;;;0.60;99.90;;;;;;4099083;29;20054;-83
2023/02/16 02:11:47;;;;;;;28.67;25.02;;;0.50;99.90;;;;;;4096389;29;20143;-83
2023/02/16 02:14:23;;;;;;;30.90;26.92;;;0.40;99.90;;;;;;4077678;29;20136;-83
2023/02/16 02:17:00;;;;;;;28.05;25.23;;;0.40;99.90;;;;;;4097078;29;20474;-83
2023/02/16 02:19:20;;;;;;;30.90;24.30;;;0.30;99.90;;;;;;4128009;28;20057;-83
2023/02/16 02:24:53;;;;;;;31.35;28.35;;;0.00;99.90;;;;;;4147327;28;20073;-84
2023/02/16 02:27:37;;;;;;;28.67;25.75;;;-0.20;99.90;;;;;;4151707;28;20050;-83
2023/02/16 02:30:10;;;;;;;25.52;22.83;;;-0.10;99.90;;;;;;4154037;28;20166;-83
2023/02/16 02:33:05;;;;;;;29.77;27.05;;;0.00;99.90;;;;;;4152551;28;20072;-83
2023/02/16 02:35:45;;;;;;;23.55;21.23;;;0.10;99.90;;;;;;4153754;28;20048;-83
2023/02/16 02:38:15;;;;;;;23.75;21.63;;;0.10;99.90;;;;;;4150187;28;20049;-83
2023/02/16 02:40:58;;;;;;;25.52;23.38;;;-0.10;99.90;;;;;;4148401;28;20076;-83
2023/02/16 02:43:29;;;;;;;21.63;19.67;;;0.00;99.90;;;;;;4147995;28;20076;-83
2023/02/16 02:46:02;;;;;;;27.30;24.88;;;-0.10;99.90;;;;;;4150037;28;20056;-83
2023/02/16 02:48:22;;;;;;;29.13;26.90;;;-0.20;99.90;;;;;;4163099;28;20087;-83
2023/02/16 02:53:26;;;;;;;27.48;25.38;;;-0.30;99.90;;;;;;4149491;28;20448;-83
2023/02/16 03:01:32;;;;;;;31.40;28.52;;;-0.20;99.90;;;;;;4144073;28;20061;-83
2023/02/16 03:03:56;;;;;;;31.20;28.50;;;-0.30;99.90;;;;;;4151069;28;20081;-83
2023/02/16 03:06:25;;;;;;;30.17;27.58;;;-0.40;99.90;;;;;;4145437;28;20053;-83
2023/02/16 03:09:01;;;;;;;40.15;36.53;;;-0.40;99.90;;;;;;4148587;28;20044;-83
2023/02/16 03:14:12;;;;;;;41.25;37.85;;;-0.70;99.90;;;;;;4145833;28;20048;-83
2023/02/16 03:16:47;;;;;;;43.35;39.08;;;-0.50;99.90;;;;;;4147764;28;20229;-83
2023/02/16 03:29:52;;;;;;;39.92;36.70;;;-0.70;99.90;;;;;;4146135;28;20064;-83
2023/02/16 03:32:12;;;;;;;44.70;41.00;;;-0.80;99.90;;;;;;4148623;28;20092;-83
2023/02/16 03:34:35;;;;;;;48.03;44.47;;;-0.80;99.90;;;;;;4146369;28;20102;-83
2023/02/16 03:36:59;;;;;;;47.17;43.75;;;-0.80;99.90;;;;;;4152683;28;20044;-83
2023/02/16 03:39:19;;;;;;;42.75;39.58;;;-0.90;99.90;;;;;;4160111;28;20056;-83
2023/02/16 03:41:46;;;;;;;41.03;37.80;;;-0.80;99.90;;;;;;4147225;28;20057;-83
2023/02/16 03:44:06;;;;;;;42.70;39.60;;;-0.60;99.90;;;;;;4144505;28;20417;-83
2023/02/16 03:46:27;;;;;;;41.80;38.55;;;-0.70;99.90;;;;;;4149104;28;20049;-83
2023/02/16 03:48:46;;;;;;;44.05;40.97;;;-0.60;99.90;;;;;;4143794;28;20363;-83
2023/02/16 03:51:06;;;;;;;43.33;40.00;;;-0.70;99.90;;;;;;4144710;28;20069;-83
2023/02/16 03:53:26;;;;;;;40.28;37.00;;;-0.70;99.90;;;;;;4142849;28;20041;-83
2023/02/16 03:55:47;;;;;;;47.00;43.67;;;-0.70;99.90;;;;;;4151124;28;20056;-83
2023/02/16 03:58:08;;;;;;;48.38;44.67;;;-0.80;99.90;;;;;;4148122;28;20041;-83
2023/02/16 04:00:29;;;;;;;51.28;47.80;;;-0.90;99.90;;;;;;4144130;28;20092;-83
2023/02/16 04:02:48;;;;;;;46.88;43.75;;;-1.10;99.90;;;;;;4146900;28;20235;-83
2023/02/16 04:05:08;;;;;;;53.92;49.90;;;-1.20;99.90;;;;;;4158257;28;20092;-83
2023/02/16 04:07:28;;;;;;;50.47;47.20;;;-1.30;99.90;;;;;;4143790;28;20060;-83
2023/02/16 04:09:51;;;;;;;53.03;49.58;;;-1.40;99.90;;;;;;4164415;28;20057;-83
2023/02/16 04:14:50;;;;;;;51.47;47.85;;;-1.40;99.90;;;;;;4151398;28;20076;-83
2023/02/16 04:17:10;;;;;;;53.88;50.17;;;-1.50;99.90;;;;;;4145866;28;20263;-83
2023/02/16 04:19:30;;;;;;;56.42;52.42;;;-1.50;99.90;;;;;;4147222;28;20061;-83
2023/02/16 04:21:53;;;;;;;53.72;50.35;;;-1.50;99.90;;;;;;4148280;28;20370;-83
2023/02/16 04:24:13;;;;;;;52.80;49.17;;;-1.50;99.90;;;;;;4146912;28;20069;-83
2023/02/16 04:26:33;;;;;;;51.15;47.85;;;-1.50;99.90;;;;;;4146159;28;20069;-83
2023/02/16 04:28:53;;;;;;;52.88;49.47;;;-1.60;99.90;;;;;;4147882;28;20041;-83
2023/02/16 04:31:13;;;;;;;51.85;48.40;;;-1.60;99.90;;;;;;4153619;28;20387;-83
2023/02/16 04:33:33;;;;;;;52.17;48.42;;;-1.60;99.90;;;;;;4145205;28;20061;-83
2023/02/16 04:35:52;;;;;;;51.33;47.97;;;-1.60;99.90;;;;;;4146599;28;20436;-83
2023/02/16 04:38:12;;;;;;;49.83;46.53;;;-1.40;99.90;;;;;;4147062;28;20101;-83
2023/02/16 04:40:32;;;;;;;50.22;46.55;;;-1.30;99.90;;;;;;4146617;28;20057;-83
2023/02/16 04:42:51;;;;;;;51.75;47.75;;;-1.20;99.90;;;;;;4147460;28;20044;-83
2023/02/16 04:45:12;;;;;;;53.47;48.72;;;-1.10;99.90;;;;;;4146664;28;20081;-83
2023/02/16 04:47:32;;;;;;;51.90;47.22;;;-1.10;99.90;;;;;;4149740;28;20045;-83
2023/02/16 04:49:52;;;;;;;52.15;48.08;;;-1.00;99.90;;;;;;4144603;28;20112;-83
2023/02/16 04:52:13;;;;;;;46.10;42.45;;;-1.00;99.90;;;;;;4150412;28;20048;-83
2023/02/16 04:54:33;;;;;;;46.78;43.75;;;-1.00;99.90;;;;;;4147069;28;20048;-83
2023/02/16 04:56:53;;;;;;;47.15;43.83;;;-1.10;99.90;;;;;;4146211;28;20148;-83
2023/02/16 04:59:14;;;;;;;52.55;48.67;;;-1.10;99.90;;;;;;4143598;28;20057;-83
2023/02/16 05:01:33;;;;;;;48.72;45.22;;;-1.20;99.90;;;;;;4144133;28;20053;-83
2023/02/16 05:03:54;;;;;;;56.10;52.00;;;-1.40;99.90;;;;;;4142227;28;20148;-83
2023/02/16 05:06:14;;;;;;;166.80;96.10;;;-1.30;99.90;;;;;;4148497;28;20096;-83
2023/02/16 05:08:34;;;;;;;72.25;63.72;;;-1.40;99.90;;;;;;4155320;28;20053;-83
2023/02/16 05:16:11;;;;;;;67.07;59.88;;;-1.60;99.90;;;;;;4149765;28;20110;-83
2023/02/16 05:18:31;;;;;;;63.33;56.80;;;-1.50;99.90;;;;;;4142482;28;20114;-83
2023/02/16 05:23:29;;;;;;;56.05;51.92;;;-1.60;99.90;;;;;;4146167;28;20241;-83
2023/02/16 05:25:49;;;;;;;53.72;50.22;;;-1.60;99.90;;;;;;4144106;28;20054;-83
2023/02/16 05:28:09;;;;;;;51.40;47.83;;;-1.50;99.90;;;;;;4144949;28;20045;-83
2023/02/16 05:30:29;;;;;;;52.00;48.17;;;-1.40;99.90;;;;;;4145166;28;20048;-83
2023/02/16 05:32:49;;;;;;;48.47;45.00;;;-1.40;99.90;;;;;;4145403;28;20061;-83
2023/02/16 05:35:09;;;;;;;52.35;48.92;;;-1.40;99.90;;;;;;4143393;28;20060;-83
2023/02/16 05:37:29;;;;;;;50.45;47.08;;;-1.40;99.90;;;;;;4159127;28;20049;-83
2023/02/16 05:39:51;;;;;;;43.10;40.22;;;-1.30;99.90;;;;;;4153464;28;20045;-83
2023/02/16 05:42:11;;;;;;;44.78;41.53;;;-1.40;99.90;;;;;;4142177;28;20061;-83
2023/02/16 05:44:32;;;;;;;44.65;41.95;;;-1.40;99.90;;;;;;4146159;28;20097;-83
2023/02/16 05:46:51;;;;;;;47.60;44.33;;;-1.50;99.90;;;;;;4151096;28;20057;-83
2023/02/16 05:49:12;;;;;;;47.13;43.55;;;-1.50;99.90;;;;;;4159591;28;20077;-83
2023/02/16 05:51:32;;;;;;;53.17;49.63;;;-1.60;99.90;;;;;;4145896;28;20120;-83
2023/02/16 05:53:52;;;;;;;51.78;48.40;;;-1.70;99.90;;;;;;4145949;28;20077;-83
2023/02/16 05:56:13;;;;;;;48.88;45.60;;;-1.80;99.90;;;;;;4142913;28;20093;-83
2023/02/16 05:58:34;;;;;;;50.70;47.38;;;-1.90;99.90;;;;;;4144919;28;20089;-83
2023/02/16 06:00:53;;;;;;;53.17;49.70;;;-1.80;99.90;;;;;;4160544;28;20067;-83
2023/02/16 06:03:13;;;;;;;56.28;52.35;;;-1.80;99.90;;;;;;4145397;28;20086;-83
2023/02/16 06:05:34;;;;;;;57.22;53.45;;;-1.80;99.90;;;;;;4150824;28;20061;-83
2023/02/16 06:07:54;;;;;;;56.72;53.00;;;-1.90;99.90;;;;;;4143276;28;20105;-83
2023/02/16 06:10:15;;;;;;;54.80;50.90;;;-2.00;99.90;;;;;;4146153;28;20089;-83
2023/02/16 06:12:35;;;;;;;60.95;55.63;;;-2.00;99.90;;;;;;4149684;28;20110;-83
2023/02/16 06:14:54;;;;;;;61.30;56.95;;;-2.10;99.90;;;;;;4147027;28;20106;-83
2023/02/16 06:17:14;;;;;;;48.72;45.58;;;-2.10;99.90;;;;;;4146833;28;20114;-82
2023/02/16 06:19:34;;;;;;;46.70;44.10;;;-1.80;99.90;;;;;;4149310;28;20041;-83
2023/02/16 06:21:54;;;;;;;43.00;40.67;;;-1.70;99.90;;;;;;4148902;28;20109;-88
2023/02/16 06:24:13;;;;;;;45.67;43.47;;;-1.70;99.90;;;;;;4148427;28;20128;-87
2023/02/16 06:26:34;;;;;;;45.03;42.63;;;-1.60;99.90;;;;;;4149935;28;20300;-86
2023/02/16 06:28:54;;;;;;;44.58;41.78;;;-1.60;99.90;;;;;;4147987;28;20372;-86
2023/02/16 06:31:14;;;;;;;48.25;44.85;;;-1.70;99.90;;;;;;4145617;28;20236;-87
2023/02/16 06:33:35;;;;;;;45.08;42.47;;;-1.70;99.90;;;;;;4149438;28;20068;-86
2023/02/16 06:35:54;;;;;;;47.80;44.95;;;-1.60;99.90;;;;;;4152385;28;20372;-87
2023/02/16 06:38:15;;;;;;;50.33;46.63;;;-1.70;99.90;;;;;;4152701;28;20053;-86
2023/02/16 06:40:34;;;;;;;101.53;79.60;;;-1.70;99.90;;;;;;4147101;28;20298;-88
2023/02/16 06:42:54;;;;;;;77.47;69.38;;;-1.80;99.90;;;;;;4151419;28;20053;-87
2023/02/16 06:45:14;;;;;;;67.00;61.42;;;-1.90;99.90;;;;;;4149871;28;20371;-88
2023/02/16 06:47:35;;;;;;;57.70;53.72;;;-2.00;99.90;;;;;;4152324;28;20266;-88
2023/02/16 06:49:55;;;;;;;57.10;52.65;;;-2.00;99.90;;;;;;4145243;28;20045;-88
2023/02/16 06:52:15;;;;;;;55.88;51.63;;;-2.00;99.90;;;;;;4146586;28;20110;-88
2023/02/16 06:54:35;;;;;;;55.53;51.28;;;-2.00;99.90;;;;;;4147170;28;20076;-88
2023/02/16 06:56:55;;;;;;;69.65;63.05;;;-2.00;99.90;;;;;;4150830;28;20053;-88
2023/02/16 06:59:15;;;;;;;68.30;62.30;;;-2.10;99.90;;;;;;4160621;28;20052;-88
2023/02/16 07:01:35;;;;;;;79.63;70.95;;;-2.10;99.90;;;;;;4151829;28;20053;-88
2023/02/16 07:03:56;;;;;;;67.47;61.38;;;-2.10;99.90;;;;;;4147290;28;20085;-87
2023/02/16 07:06:17;;;;;;;59.13;53.88;;;-2.20;99.90;;;;;;4149674;28;20241;-87
2023/02/16 07:08:36;;;;;;;56.92;52.47;;;-2.10;99.90;;;;;;4147534;28;20125;-88
2023/02/16 07:10:59;;;;;;;44.75;42.30;;;-1.90;99.90;;;;;;4147402;28;20053;-88
2023/02/16 07:13:19;;;;;;;45.95;43.45;;;-1.70;99.90;;;;;;4154052;28;20125;-87
2023/02/16 07:15:39;;;;;;;45.90;42.60;;;-1.70;99.90;;;;;;4149613;28;20046;-88
2023/02/16 07:17:59;;;;;;;47.15;43.88;;;-1.70;99.90;;;;;;4149974;28;20052;-87
2023/02/16 07:20:19;;;;;;;50.75;47.50;;;-1.60;99.90;;;;;;4146488;28;20415;-88
2023/02/16 07:22:39;;;;;;;52.22;49.08;;;-1.60;99.90;;;;;;4146574;28;20049;-87
2023/02/16 07:24:59;;;;;;;50.55;47.42;;;-1.60;99.90;;;;;;4146622;28;20061;-88
2023/02/16 07:27:20;;;;;;;46.95;44.08;;;-1.50;99.90;;;;;;4149976;28;20088;-88
2023/02/16 07:29:40;;;;;;;39.08;37.08;;;-1.30;99.90;;;;;;4152606;28;20257;-88
2023/02/16 07:32:01;;;;;;;40.30;37.63;;;-1.20;99.90;;;;;;4144931;28;20277;-88
2023/02/16 07:34:21;;;;;;;71.55;63.90;;;-1.10;99.90;;;;;;4145737;28;20042;-88
2023/02/16 07:36:43;;;;;;;46.83;43.13;;;-1.10;99.90;;;;;;4150218;28;20056;-88
2023/02/16 07:39:03;;;;;;;66.90;60.70;;;-1.00;99.90;;;;;;4150087;28;20078;-88
2023/02/16 07:41:23;;;;;;;63.53;57.17;;;-1.10;99.90;;;;;;4161728;28;20048;-88
2023/02/16 07:43:43;;;;;;;61.53;52.30;;;-1.10;99.90;;;;;;4143496;28;20045;-88
2023/02/16 07:46:04;;;;;;;63.20;56.40;;;-1.10;99.90;;;;;;4152424;28;20125;-89
2023/02/16 07:48:24;;;;;;;57.80;51.63;;;-1.00;99.90;;;;;;4144964;28;20036;-88
2023/02/16 07:50:43;;;;;;;50.45;44.58;;;-0.90;99.90;;;;;;4148089;28;20065;-89
2023/02/16 07:53:03;;;;;;;46.33;42.28;;;-0.80;99.90;;;;;;4154340;28;20411;-88
2023/02/16 07:55:23;;;;;;;27.38;24.88;;;-0.80;99.90;;;;;;4145338;28;20105;-89
2023/02/16 07:57:43;;;;;;;17.35;16.38;;;-0.60;99.90;;;;;;4151392;28;20060;-89
2023/02/16 08:00:07;;;;;;;16.73;15.52;;;-0.40;99.90;;;;;;4146376;28;20049;-89
2023/02/16 08:02:27;;;;;;;14.43;13.85;;;-0.30;99.90;;;;;;4147771;28;20104;-89
2023/02/16 08:04:48;;;;;;;18.70;17.25;;;-0.10;99.90;;;;;;4159117;28;20673;-89
2023/02/16 08:07:14;;;;;;;18.23;16.92;;;0.00;99.90;;;;;;4147894;28;20053;-88
2023/02/16 08:09:34;;;;;;;17.98;16.48;;;0.20;99.90;;;;;;4149897;28;20049;-89
2023/02/16 08:11:54;;;;;;;14.75;13.95;;;0.40;99.90;;;;;;4142527;28;20045;-91
2023/02/16 08:14:15;;;;;;;19.05;17.85;;;0.40;99.90;;;;;;4151089;28;20110;-90
2023/02/16 08:16:35;;;;;;;22.80;21.17;;;0.50;99.90;;;;;;4148996;28;20065;-90
2023/02/16 08:18:58;;;;;;;21.77;19.98;;;0.50;99.90;;;;;;4148298;28;20188;-91
2023/02/16 08:21:20;;;;;;;;;;;0.60;99.90;;;;;;4144559;28;20065;-90
2023/02/16 08:23:52;;;;;;;25.05;23.02;;;0.80;99.90;;;;;;4161920;28;20168;-90
2023/02/16 08:26:16;;;;;;;28.23;25.30;;;0.80;99.90;;;;;;4158412;28;20048;-90
2023/02/16 08:28:36;;;;;;;38.63;33.83;;;0.90;99.90;;;;;;4155052;28;20072;-91
2023/02/16 08:31:02;;;;;;;65.80;51.33;;;1.00;99.90;;;;;;4147941;28;20244;-90
2023/02/16 08:33:22;;;;;;;60.67;45.38;;;1.10;99.90;;;;;;4148401;28;20037;-90
2023/02/16 08:35:42;;;;;;;81.55;54.63;;;1.20;99.90;;;;;;4145743;28;20049;-91
2023/02/16 08:38:02;;;;;;;51.67;42.55;;;1.30;99.90;;;;;;4150329;28;20399;-91
2023/02/16 08:40:24;;;;;;;72.18;50.90;;;1.50;99.90;;;;;;4147818;28;20387;-90
2023/02/16 08:42:43;;;;;;;68.65;50.92;;;1.70;99.90;;;;;;4147288;28;20359;-90
2023/02/16 08:45:06;;;;;;;73.38;52.55;;;1.80;99.90;;;;;;4145467;28;20049;-90
2023/02/16 08:47:25;;;;;;;67.43;45.63;;;1.90;99.90;;;;;;4151620;28;20064;-89
2023/02/16 08:49:46;;;;;;;90.28;52.08;;;1.90;99.90;;;;;;4153771;28;20371;-91
2023/02/16 08:52:06;;;;;;;95.93;57.60;;;2.00;99.90;;;;;;4144122;28;20085;-91
2023/02/16 08:54:29;;;;;;;57.92;36.58;;;2.20;99.90;;;;;;4150768;28;20362;-90
2023/02/16 08:56:48;;;;;;;40.72;26.40;;;2.40;99.90;;;;;;4142876;28;20080;-90
2023/02/16 08:59:08;;;;;;;97.70;52.95;;;2.40;99.90;;;;;;4154254;28;20360;-89
2023/02/16 09:01:28;;;;;;;45.78;33.60;;;2.50;99.90;;;;;;4144547;28;20045;-89
2023/02/16 09:03:49;;;;;;;59.95;37.47;;;2.60;99.90;;;;;;4143710;28;20287;-91
2023/02/16 09:06:11;;;;;;;30.23;23.55;;;2.70;99.90;;;;;;4155086;28;20283;-91
2023/02/16 09:08:31;;;;;;;21.10;19.00;;;2.90;99.90;;;;;;4145206;28;20060;-91
2023/02/16 09:10:51;;;;;;;29.60;26.60;;;3.00;99.90;;;;;;4143994;28;20330;-91
2023/02/16 09:13:14;;;;;;;35.05;28.83;;;3.20;99.90;;;;;;4146225;28;20142;-91
2023/02/16 09:15:35;;;;;;;29.38;26.23;;;3.30;99.90;;;;;;4155909;28;20117;-91
2023/02/16 09:17:57;;;;;;;38.47;30.63;;;3.50;99.90;;;;;;4149038;28;20082;-91
2023/02/16 09:20:19;;;;;;;19.55;17.58;;;3.70;99.90;;;;;;4146740;28;20048;-91
2023/02/16 09:22:43;;;;;;;18.17;16.67;;;4.10;99.90;;;;;;4154345;28;20276;-89
2023/02/16 09:25:07;;;;;;;17.98;16.38;;;4.40;99.90;;;;;;4146707;28;20065;-90
2023/02/16 09:27:27;;;;;;;20.50;18.52;;;4.90;99.90;;;;;;4148693;28;20132;-89
2023/02/16 09:29:49;;;;;;;16.10;14.73;;;5.30;99.90;;;;;;4147759;28;20045;-89
2023/02/16 09:32:09;;;;;;;16.02;14.77;;;5.70;99.90;;;;;;4146089;28;20075;-88
2023/02/16 09:34:29;;;;;;;15.63;14.45;;;6.00;99.90;;;;;;4141523;28;20292;-88
2023/02/16 09:36:50;;;;;;;13.40;12.50;;;6.00;99.90;;;;;;4149221;28;20367;-88
2023/02/16 09:39:11;;;;;;;13.88;12.90;;;6.10;99.90;;;;;;4160019;28;20044;-88
2023/02/16 09:41:40;;;;;;;26.27;22.77;;;6.10;99.90;;;;;;4146514;28;20049;-88
2023/02/16 09:44:12;;;;;;;21.85;19.90;;;6.10;99.90;;;;;;4162773;28;20406;-89
2023/02/16 09:46:33;;;;;;;22.92;20.63;;;6.10;99.90;;;;;;4145972;28;20049;-89
2023/02/16 09:48:53;;;;;;;19.73;17.77;;;6.10;99.90;;;;;;4154594;28;20109;-89
2023/02/16 09:51:22;;;;;;;23.25;19.60;;;6.40;99.90;;;;;;4149636;28;20272;-89
2023/02/16 09:54:19;;;;;;;19.92;18.00;;;6.50;99.90;;;;;;4149708;28;20104;-88
2023/02/16 09:56:51;;;;;;;21.35;19.17;;;6.60;99.90;;;;;;4146990;28;20069;-88
2023/02/16 09:59:39;;;;;;;21.30;19.25;;;6.60;99.90;;;;;;4149086;28;20044;-89
2023/02/16 10:02:28;;;;;;;34.13;25.70;;;6.80;99.90;;;;;;4145540;28;20110;-89
2023/02/16 10:05:07;;;;;;;27.80;24.40;;;7.00;99.50;;;;;;4149468;28;20052;-88
2023/02/16 10:07:34;;;;;;;26.17;22.20;;;7.20;99.90;;;;;;4150631;28;20081;-89
2023/02/16 10:09:55;;;;;;;25.95;23.15;;;7.30;98.90;;;;;;4152340;28;20383;-89
2023/02/16 10:12:24;;;;;;;27.48;23.52;;;7.40;98.90;;;;;;4166463;28;20115;-88
2023/02/16 10:15:00;;;;;;;23.50;20.73;;;7.50;98.70;;;;;;4155206;28;20072;-89
2023/02/16 10:17:34;;;;;;;26.30;23.02;;;7.60;99.30;;;;;;4148368;28;20037;-88
2023/02/16 10:20:11;;;;;;;17.40;16.00;;;7.90;98.80;;;;;;4158456;28;20241;-89
2023/02/16 10:22:47;;;;;;;11.77;10.88;;;8.60;99.60;;;;;;4150921;28;20040;-89
2023/02/16 10:25:19;;;;;;;15.20;13.63;;;8.70;99.10;;;;;;4145083;28;20049;-89
2023/02/16 10:27:42;;;;;;;13.47;12.23;;;9.10;99.50;;;;;;4147735;28;20049;-89
2023/02/16 10:30:09;;;;;;;;;;;9.30;99.30;;;;;;4149159;28;20052;-90
2023/02/16 10:32:39;;;;;;;15.20;13.57;;;9.30;98.90;;;;;;4148031;28;19959;-90
2023/02/16 10:35:12;;;;;;;15.80;14.15;;;9.60;99.90;;;;;;4146949;28;20115;-89
2023/02/16 10:38:11;;;;;;;23.15;14.63;;;9.60;99.30;;;;;;4149658;28;20237;-90
2023/02/16 10:40:51;;;;;;;16.48;15.27;;;9.60;99.30;;;;;;4146655;28;20048;-90
2023/02/16 10:43:17;;;;;;;17.77;16.15;;;9.70;99.90;;;;;;4144914;28;20049;-88
2023/02/16 10:45:57;;;;;;;20.17;18.27;;;9.90;99.90;;;;;;4150260;28;20092;-89
2023/02/16 10:48:22;;;;;;;17.67;16.27;;;9.80;99.90;;;;;;4146742;28;20077;-89
2023/02/16 10:50:50;;;;;;;18.60;16.83;;;10.20;99.90;;;;;;4146227;28;20049;-89
2023/02/16 10:53:36;;;;;;;20.08;18.02;;;10.40;99.90;;;;;;4147723;28;20116;-88
2023/02/16 10:55:57;;;;;;;21.50;19.10;;;10.40;99.90;;;;;;4160049;28;20383;-89
2023/02/16 10:58:27;;;;;;;19.30;17.50;;;10.40;99.90;;;;;;4151361;28;20278;-89
2023/02/16 11:01:07;;;;;;;21.25;19.15;;;10.50;99.90;;;;;;4152418;28;20045;-89
2023/02/16 11:03:32;;;;;;;19.55;17.70;;;10.70;99.90;;;;;;4146885;28;20057;-89
2023/02/16 11:05:52;;;;;;;19.63;17.92;;;11.10;99.90;;;;;;4150203;28;20500;-90
2023/02/16 11:08:12;;;;;;;19.23;17.40;;;11.40;99.90;;;;;;4148410;28;20073;-89
2023/02/16 11:10:34;;;;;;;19.55;17.63;;;11.40;99.90;;;;;;4151011;28;20291;-89
2023/02/16 11:12:58;;;;;;;19.10;17.38;;;11.40;99.90;;;;;;4149342;28;20100;-90
2023/02/16 11:15:18;;;;;;;19.63;17.90;;;11.00;99.90;;;;;;4148298;28;20081;-90
2023/02/16 11:17:51;;;;;;;21.13;18.92;;;10.80;99.90;;;;;;4155958;28;20068;-90
2023/02/16 11:20:32;;;;;;;20.07;18.13;;;10.60;99.90;;;;;;4147979;28;20110;-89
2023/02/16 11:22:52;;;;;;;19.55;17.90;;;10.40;99.90;;;;;;4148190;28;20053;-89
2023/02/16 11:25:20;;;;;;;21.85;19.98;;;10.90;99.90;;;;;;4143611;28;20061;-88
2023/02/16 11:27:56;;;;;;;21.00;18.52;;;10.70;99.90;;;;;;4148857;28;20096;-88
2023/02/16 11:30:22;;;;;;;18.95;17.23;;;10.90;99.90;;;;;;4146673;28;20080;-89
2023/02/16 11:32:42;;;;;;;19.05;17.45;;;10.60;99.90;;;;;;4149593;28;20311;-90
2023/02/16 11:35:08;;;;;;;22.75;20.67;;;10.60;99.90;;;;;;4153925;28;20110;-89
2023/02/16 11:37:32;;;;;;;21.05;18.95;;;10.50;99.90;;;;;;4149685;28;20041;-90
2023/02/16 11:39:55;;;;;;;20.45;18.42;;;10.60;99.90;;;;;;4146310;28;20086;-89
2023/02/16 11:42:39;;;;;;;19.02;17.33;;;10.70;99.90;;;;;;4147464;28;20061;-89
2023/02/16 11:45:00;;;;;;;20.10;18.05;;;10.50;99.90;;;;;;4149437;28;20036;-90
2023/02/16 11:47:26;;;;;;;18.80;17.25;;;10.80;99.90;;;;;;4158558;28;20100;-89
2023/02/16 11:49:46;;;;;;;18.92;17.35;;;10.90;99.90;;;;;;4146842;28;20046;-89
2023/02/16 11:52:22;;;;;;;17.85;16.15;;;11.10;99.90;;;;;;4150439;28;20058;-90
2023/02/16 11:54:56;;;;;;;19.05;17.20;;;11.40;99.60;;;;;;4146599;28;20359;-89
2023/02/16 11:57:27;;;;;;;20.65;18.77;;;11.60;99.90;;;;;;4147855;28;20056;-90
2023/02/16 11:59:47;;;;;;;20.48;18.33;;;11.10;99.90;;;;;;4149830;28;20241;-89
2023/02/16 12:02:25;;;;;;;21.23;19.17;;;10.90;99.90;;;;;;4150505;28;20181;-89
2023/02/16 12:05:24;;;;;;;19.00;17.40;;;10.80;99.90;;;;;;4147926;28;20144;-89
2023/02/16 12:08:02;;;;;;;21.23;19.13;;;10.60;99.90;;;;;;4146248;28;20065;-89
2023/02/16 12:10:42;;;;;;;21.67;19.67;;;10.60;99.90;;;;;;4160086;28;20049;-90
2023/02/16 12:13:14;;;;;;;21.13;18.90;;;10.60;99.90;;;;;;4160105;28;20060;-89
2023/02/16 12:15:47;;;;;;;21.58;19.55;;;10.80;99.90;;;;;;4150117;28;20053;-89
2023/02/16 12:18:30;;;;;;;21.17;19.08;;;10.90;99.90;;;;;;4146077;28;20233;-90
2023/02/16 12:21:03;;;;;;;22.63;20.45;;;10.70;99.90;;;;;;4148805;28;20096;-89
2023/02/16 12:23:23;;;;;;;;;;;10.90;99.90;;;;;;4151538;28;20155;-89
2023/02/16 12:26:09;;;;;;;21.13;19.00;;;11.10;99.90;;;;;;4145163;28;19960;-90
2023/02/16 12:29:07;;;;;;;22.23;20.15;;;10.80;99.90;;;;;;4136475;28;20044;-89
2023/02/16 12:32:03;;;;;;;20.95;19.05;;;10.50;99.90;;;;;;4080392;29;20043;-89
2023/02/16 12:34:27;;;;;;;20.17;18.30;;;10.40;99.90;;;;;;4072011;29;20500;-89
2023/02/16 12:36:46;;;;;;;;;;;10.60;99.90;;;;;;4088260;29;20091;-90
2023/02/16 12:39:45;;;;;;;22.10;20.30;;;10.30;99.90;;;;;;4084560;29;19962;-89
2023/02/16 12:42:18;;;;;;;22.85;20.75;;;10.40;99.90;;;;;;4087045;29;20050;-89
2023/02/16 12:44:44;;;;;;;20.30;18.65;;;10.30;99.90;;;;;;4089382;29;20507;-89
2023/02/16 12:47:12;;;;;;;21.85;19.77;;;10.20;99.90;;;;;;4070707;29;20135;-84
2023/02/16 12:49:53;;;;;;;22.40;20.25;;;10.00;99.90;;;;;;4085827;29;20278;-84
2023/02/16 12:52:45;;;;;;;22.42;20.40;;;10.20;99.90;;;;;;4085995;29;20147;-84
2023/02/16 12:55:42;;;;;;;24.55;22.15;;;10.20;99.90;;;;;;4084197;29;20120;-84
2023/02/16 12:58:32;;;;;;;26.38;23.77;;;9.80;99.90;;;;;;4086534;29;20087;-84
2023/02/16 13:02:43;;;;;;;26.65;24.23;;;9.80;99.90;;;;;;4294608;27;20173;-84
2023/02/16 13:05:21;;;;;;;27.13;24.30;;;9.50;99.90;;;;;;4286732;27;20065;-84
2023/02/16 13:07:43;;;;;;;28.50;25.70;;;9.50;99.90;;;;;;4284699;27;20360;-84
2023/02/16 13:10:19;;;;;;;28.30;25.50;;;9.60;99.90;;;;;;4285522;27;20045;-85
2023/02/16 13:12:46;;;;;;;29.70;26.83;;;9.90;99.90;;;;;;4287450;27;20038;-84